createdAt,value
2019-05-20T00:00:36.346Z,8.20
2019-05-20T00:03:06.636Z,8.23
2019-05-20T00:05:37.599Z,7.73
2019-05-20T00:08:08.200Z,7.53
2019-05-20T00:10:38.869Z,8.70
2019-05-20T00:13:09.174Z,7.27
2019-05-20T00:15:40.011Z,8.17
2019-05-20T00:18:10.842Z,7.80
2019-05-20T00:20:43.351Z,7.97
2019-05-20T00:23:15.520Z,7.77
2019-05-20T00:25:45.829Z,8.87
2019-05-20T00:28:16.141Z,7.27
2019-05-20T00:30:47.163Z,8.80
2019-05-20T00:33:19.202Z,9.70
2019-05-20T00:35:50.001Z,8.60
2019-05-20T00:38:21.245Z,8.67
2019-05-20T00:40:51.707Z,11.23
2019-05-20T00:43:22.671Z,10.57
2019-05-20T00:45:53.861Z,8.27
2019-05-20T00:48:25.925Z,10.67
2019-05-20T00:50:57.342Z,9.20
2019-05-20T00:53:28.662Z,8.50
2019-05-20T00:55:59.565Z,8.10
2019-05-20T00:58:32.587Z,9.97
2019-05-20T01:03:28.562Z,8.87
2019-05-20T01:05:59.381Z,9.33
2019-05-20T01:08:32.032Z,9.30
2019-05-20T01:11:05.075Z,8.90
2019-05-20T01:13:36.577Z,8.47
2019-05-20T01:16:07.847Z,7.97
2019-05-20T01:18:39.503Z,9.03
2019-05-20T01:21:10.215Z,9.60
2019-05-20T01:23:42.056Z,10.20
2019-05-20T01:26:14.046Z,8.80
2019-05-20T01:28:47.324Z,8.30
2019-05-20T01:31:18.264Z,9.40
2019-05-20T01:33:49.605Z,8.43
2019-05-20T01:36:23.355Z,8.40
2019-05-20T01:38:54.752Z,9.37
2019-05-20T01:41:26.414Z,11.30
2019-05-20T01:43:58.781Z,9.00
2019-05-20T01:46:31.074Z,9.73
2019-05-20T01:49:05.617Z,10.93
2019-05-20T01:51:36.109Z,9.93
2019-05-20T01:54:07.106Z,9.33
2019-05-20T01:56:37.777Z,8.43
2019-05-20T01:59:08.581Z,9.63
2019-05-20T02:01:40.012Z,9.83
2019-05-20T02:04:10.885Z,9.83
2019-05-20T02:06:41.602Z,9.20
2019-05-20T02:09:13.358Z,8.87
2019-05-20T02:11:46.753Z,8.63
2019-05-20T02:14:20.739Z,8.73
2019-05-20T02:16:53.272Z,9.20
2019-05-20T02:19:24.054Z,10.10
2019-05-20T02:21:55.469Z,9.40
2019-05-20T02:24:25.802Z,9.73
2019-05-20T02:26:56.136Z,9.53
2019-05-20T02:29:26.525Z,9.20
2019-05-20T02:31:56.867Z,10.30
2019-05-20T02:34:27.196Z,11.60
2019-05-20T02:36:57.523Z,12.23
2019-05-20T02:39:27.834Z,9.30
2019-05-20T02:41:58.114Z,9.03
2019-05-20T02:44:28.763Z,11.07
2019-05-20T02:46:59.126Z,12.80
2019-05-20T02:49:29.462Z,10.30
2019-05-20T02:51:59.820Z,11.50
2019-05-20T02:54:30.153Z,11.60
2019-05-20T02:57:00.657Z,10.73
2019-05-20T02:59:31.267Z,11.33
2019-05-20T03:02:01.603Z,11.93
2019-05-20T03:04:31.979Z,9.73
2019-05-20T03:07:02.373Z,10.93
2019-05-20T03:09:32.687Z,9.93
2019-05-20T03:12:04.345Z,11.50
2019-05-20T03:14:34.701Z,10.10
2019-05-20T03:17:05.090Z,12.17
2019-05-20T03:19:35.562Z,11.50
2019-05-20T03:22:06.069Z,11.57
2019-05-20T03:24:36.546Z,11.60
2019-05-20T03:27:06.471Z,12.97
2019-05-20T03:29:36.862Z,14.20
2019-05-20T03:32:07.146Z,12.50
2019-05-20T03:34:53.615Z,12.33
2019-05-20T03:37:09.450Z,13.07
2019-05-20T03:39:39.913Z,12.50
2019-05-20T03:42:10.291Z,12.80
2019-05-20T03:44:41.025Z,12.10
2019-05-20T03:47:11.434Z,12.47
2019-05-20T03:49:41.831Z,14.17
2019-05-20T03:52:12.441Z,13.77
2019-05-20T03:54:42.782Z,14.20
2019-05-20T03:57:13.194Z,13.40
2019-05-20T03:59:43.550Z,13.17
2019-05-20T04:02:13.932Z,14.27
2019-05-20T04:05:00.847Z,14.30
2019-05-20T04:07:16.387Z,15.57
2019-05-20T04:09:46.755Z,14.97
2019-05-20T04:12:17.230Z,13.63
2019-05-20T04:14:47.630Z,15.10
2019-05-20T04:17:17.950Z,15.57
2019-05-20T04:19:48.258Z,13.73
2019-05-20T04:22:18.581Z,15.07
2019-05-20T04:24:50.397Z,15.07
2019-05-20T04:27:20.746Z,14.73
2019-05-20T04:29:51.107Z,14.30
2019-05-20T04:32:21.574Z,14.03
2019-05-20T04:34:51.904Z,16.60
2019-05-20T04:37:22.302Z,13.37
2019-05-20T04:39:52.798Z,18.17
2019-05-20T04:42:23.182Z,14.33
2019-05-20T04:44:53.624Z,15.47
2019-05-20T04:47:24.288Z,15.60
2019-05-20T04:49:54.635Z,17.87
2019-05-20T04:52:25.012Z,13.90
2019-05-20T04:54:55.424Z,15.90
2019-05-20T04:57:25.748Z,15.83
2019-05-20T04:59:56.082Z,14.80
2019-05-20T05:02:26.402Z,15.80
2019-05-20T05:04:56.726Z,15.73
2019-05-20T05:07:27.142Z,17.77
2019-05-20T05:09:57.474Z,15.60
2019-05-20T05:12:28.282Z,16.37
2019-05-20T05:14:58.613Z,16.10
2019-05-20T05:17:29.118Z,17.47
2019-05-20T05:19:59.535Z,17.33
2019-05-20T05:22:29.885Z,18.73
2019-05-20T05:25:00.281Z,19.53
2019-05-20T05:27:30.786Z,19.07
2019-05-20T05:30:01.276Z,18.57
2019-05-20T05:32:44.902Z,22.33
2019-05-20T05:35:16.134Z,18.87
2019-05-20T05:37:46.688Z,19.60
2019-05-20T05:40:17.474Z,19.97
2019-05-20T05:42:47.819Z,21.83
2019-05-20T05:45:22.402Z,20.97
2019-05-20T05:47:52.824Z,19.00
2019-05-20T05:50:23.173Z,19.37
2019-05-20T05:52:53.582Z,21.60
2019-05-20T05:55:24.103Z,21.77
2019-05-20T05:57:54.504Z,20.53
2019-05-20T06:00:25.017Z,20.67
2019-05-20T06:02:55.388Z,20.33
2019-05-20T06:05:25.727Z,21.00
2019-05-20T06:07:56.056Z,25.83
2019-05-20T06:10:26.382Z,21.53
2019-05-20T06:12:56.695Z,21.50
2019-05-20T06:15:27.029Z,20.63
2019-05-20T06:17:57.426Z,22.73
2019-05-20T06:20:27.806Z,20.33
2019-05-20T06:22:58.157Z,21.43
2019-05-20T06:25:28.581Z,19.77
2019-05-20T06:27:58.893Z,20.60
2019-05-20T06:30:41.674Z,19.30
2019-05-20T06:33:12.001Z,21.10
2019-05-20T06:35:42.417Z,18.80
2019-05-20T06:38:17.829Z,21.20
2019-05-20T06:40:48.196Z,18.70
2019-05-20T06:43:18.824Z,20.80
2019-05-20T06:45:49.233Z,25.10
2019-05-20T06:48:19.623Z,20.70
2019-05-20T06:50:49.954Z,22.77
2019-05-20T06:53:20.266Z,21.90
2019-05-20T06:55:50.774Z,21.43
2019-05-20T06:58:21.138Z,21.53
2019-05-20T07:00:51.464Z,22.23
2019-05-20T07:03:21.849Z,23.47
2019-05-20T07:05:53.438Z,22.97
2019-05-20T07:08:23.895Z,23.60
2019-05-20T07:10:54.185Z,27.47
2019-05-20T07:13:24.581Z,23.00
2019-05-20T07:15:55.063Z,23.87
2019-05-20T07:18:27.460Z,24.07
2019-05-20T07:20:57.456Z,25.90
2019-05-20T07:23:27.783Z,27.30
2019-05-20T07:25:58.085Z,27.20
2019-05-20T07:28:28.420Z,24.73
2019-05-20T07:30:59.026Z,26.73
2019-05-20T07:33:29.417Z,24.87
2019-05-20T07:35:59.738Z,28.53
2019-05-20T07:38:30.123Z,27.70
2019-05-20T07:41:00.534Z,27.97
2019-05-20T07:43:30.890Z,28.80
2019-05-20T07:46:02.285Z,29.23
2019-05-20T07:48:33.427Z,29.77
2019-05-20T07:51:04.527Z,29.50
2019-05-20T07:53:35.278Z,28.00
2019-05-20T07:56:09.442Z,26.87
2019-05-20T07:58:42.329Z,27.83
2019-05-20T08:01:12.802Z,27.93
2019-05-20T08:03:43.375Z,30.50
2019-05-20T08:06:13.789Z,28.87
2019-05-20T08:08:44.139Z,26.40
2019-05-20T08:11:14.470Z,28.07
2019-05-20T08:13:44.777Z,27.73
2019-05-20T08:16:15.116Z,27.63
2019-05-20T08:18:45.660Z,31.03
2019-05-20T08:21:17.398Z,27.90
2019-05-20T08:23:50.149Z,31.37
2019-05-20T08:26:21.155Z,29.63
2019-05-20T08:28:56.040Z,27.10
2019-05-20T08:31:27.859Z,29.90
2019-05-20T08:34:05.385Z,26.53
2019-05-20T08:36:37.772Z,27.33
2019-05-20T08:39:12.002Z,26.90
2019-05-20T08:41:48.349Z,29.40
2019-05-20T08:44:20.662Z,26.80
2019-05-20T08:46:51.305Z,27.30
2019-05-20T08:49:21.748Z,27.73
2019-05-20T08:51:52.178Z,28.30
2019-05-20T08:54:22.493Z,28.73
2019-05-20T08:56:52.979Z,28.23
2019-05-20T08:59:23.294Z,27.20
2019-05-20T09:01:53.967Z,26.23
2019-05-20T09:04:24.363Z,25.33
2019-05-20T09:06:54.688Z,26.67
2019-05-20T09:09:25.245Z,24.70
2019-05-20T09:11:55.854Z,26.77
2019-05-20T09:14:26.159Z,27.40
2019-05-20T09:16:56.509Z,25.53
2019-05-20T09:19:26.816Z,27.67
2019-05-20T09:21:57.151Z,25.27
2019-05-20T09:24:27.509Z,25.97
2019-05-20T09:26:57.887Z,29.00
2019-05-20T09:29:28.162Z,27.97
2019-05-20T09:31:58.589Z,26.93
2019-05-20T09:34:29.594Z,27.20
2019-05-20T09:36:59.934Z,25.50
2019-05-20T09:39:31.389Z,23.07
2019-05-20T09:42:02.036Z,25.40
2019-05-20T09:44:32.374Z,24.40
2019-05-20T09:47:07.447Z,25.67
2019-05-20T09:49:40.058Z,25.83
2019-05-20T09:52:10.313Z,25.87
2019-05-20T09:54:41.401Z,27.33
2019-05-20T09:57:11.730Z,27.33
2019-05-20T09:59:43.828Z,26.07
2019-05-20T10:02:14.012Z,25.77
2019-05-20T10:04:44.322Z,25.43
2019-05-20T10:07:14.779Z,25.47
2019-05-20T10:09:45.106Z,23.83
2019-05-20T10:12:15.536Z,26.83
2019-05-20T10:14:46.035Z,24.63
2019-05-20T10:17:16.365Z,25.43
2019-05-20T10:19:46.744Z,27.07
2019-05-20T10:22:17.071Z,24.67
2019-05-20T10:24:49.358Z,30.27
2019-05-20T10:27:19.672Z,26.00
2019-05-20T10:29:50.010Z,27.60
2019-05-20T10:32:21.063Z,21.50
2019-05-20T10:34:51.701Z,27.73
2019-05-20T10:37:22.022Z,29.00
2019-05-20T10:39:52.370Z,23.47
2019-05-20T10:42:23.824Z,27.10
2019-05-20T10:44:54.198Z,25.40
2019-05-20T10:47:24.541Z,27.87
2019-05-20T10:49:54.901Z,25.07
2019-05-20T10:52:25.537Z,23.80
2019-05-20T10:54:55.826Z,23.70
2019-05-20T10:57:26.293Z,26.27
2019-05-20T10:59:56.756Z,22.97
2019-05-20T11:02:31.111Z,26.23
2019-05-20T11:04:59.085Z,22.37
2019-05-20T11:07:29.427Z,27.17
2019-05-20T11:09:59.834Z,27.13
2019-05-20T11:12:30.188Z,26.43
2019-05-20T11:15:00.499Z,24.70
2019-05-20T11:17:30.972Z,27.27
2019-05-20T11:20:01.379Z,25.43
2019-05-20T11:22:31.871Z,26.30
2019-05-20T11:25:02.301Z,26.20
2019-05-20T11:27:32.792Z,26.33
2019-05-20T11:30:03.218Z,29.27
2019-05-20T11:32:33.589Z,24.57
2019-05-20T11:35:03.958Z,27.10
2019-05-20T11:37:34.299Z,28.33
2019-05-20T11:40:06.251Z,26.93
2019-05-20T11:42:36.897Z,29.20
2019-05-20T11:45:08.286Z,27.53
2019-05-20T11:47:38.740Z,26.03
2019-05-20T11:50:09.796Z,27.07
2019-05-20T11:52:40.245Z,29.30
2019-05-20T11:55:11.585Z,27.73
2019-05-20T11:57:42.021Z,28.73
2019-05-20T12:00:13.015Z,30.47
2019-05-20T12:02:43.356Z,27.47
2019-05-20T12:05:15.419Z,30.73
2019-05-20T12:07:45.743Z,30.43
2019-05-20T12:10:16.907Z,29.00
2019-05-20T12:12:47.231Z,28.63
2019-05-20T12:15:18.742Z,29.30
2019-05-20T12:17:49.103Z,30.93
2019-05-20T12:20:19.942Z,27.23
2019-05-20T12:22:50.362Z,30.17
2019-05-20T12:25:21.258Z,31.70
2019-05-20T12:27:51.673Z,30.63
2019-05-20T12:30:22.448Z,29.43
2019-05-20T12:33:15.536Z,33.23
2019-05-20T12:35:24.926Z,28.13
2019-05-20T12:37:55.259Z,30.47
2019-05-20T12:40:25.657Z,32.37
2019-05-20T12:42:56.005Z,30.27
2019-05-20T12:45:26.429Z,29.10
2019-05-20T12:47:57.729Z,32.23
2019-05-20T12:50:28.101Z,30.77
2019-05-20T12:52:58.438Z,27.97
2019-05-20T12:55:28.771Z,31.63
2019-05-20T12:57:59.230Z,31.00
2019-05-20T13:00:29.543Z,35.10
2019-05-20T13:02:59.981Z,31.27
2019-05-20T13:05:30.342Z,29.93
2019-05-20T13:08:00.741Z,34.43
2019-05-20T13:10:32.355Z,34.67
2019-05-20T13:13:03.976Z,31.57
2019-05-20T13:15:37.428Z,35.47
2019-05-20T13:18:08.902Z,36.60
2019-05-20T13:20:41.032Z,36.10
2019-05-20T13:23:13.523Z,39.57
2019-05-20T13:25:43.433Z,38.33
2019-05-20T13:28:13.867Z,40.77
2019-05-20T13:30:44.263Z,39.83
2019-05-20T13:33:14.763Z,41.80
2019-05-20T13:35:45.101Z,40.20
2019-05-20T13:38:15.477Z,41.20
2019-05-20T13:40:47.346Z,41.93
2019-05-20T13:43:17.970Z,40.80
2019-05-20T13:45:48.579Z,41.13
2019-05-20T13:48:19.003Z,43.73
2019-05-20T13:50:49.302Z,43.83
2019-05-20T13:53:19.677Z,42.37
2019-05-20T13:55:50.146Z,43.03
2019-05-20T13:58:24.158Z,44.60
2019-05-20T14:00:54.603Z,42.27
2019-05-20T14:03:25.288Z,43.47
2019-05-20T14:05:56.418Z,45.50
2019-05-20T14:08:26.734Z,46.83
2019-05-20T14:11:04.262Z,44.80
2019-05-20T14:13:30.534Z,49.87
2019-05-20T14:16:01.273Z,47.47
2019-05-20T14:18:31.687Z,48.03
2019-05-20T14:21:02.065Z,48.17
2019-05-20T14:23:32.455Z,44.47
2019-05-20T14:26:02.859Z,51.13
2019-05-20T14:28:34.535Z,49.57
2019-05-20T14:31:06.034Z,52.33
2019-05-20T14:33:36.799Z,50.30
2019-05-20T14:36:12.162Z,54.23
2019-05-20T14:38:43.641Z,49.67
2019-05-20T14:41:21.710Z,55.53
2019-05-20T14:43:46.050Z,50.77
2019-05-20T14:46:16.462Z,55.20
2019-05-20T14:48:47.145Z,54.17
2019-05-20T14:51:17.897Z,51.40
2019-05-20T14:53:48.297Z,53.23
2019-05-20T14:56:18.630Z,53.77
2019-05-20T14:58:48.943Z,52.43
2019-05-20T15:01:19.327Z,54.83
2019-05-20T15:03:50.639Z,55.87
2019-05-20T15:06:21.544Z,51.37
2019-05-20T15:08:53.204Z,49.93
2019-05-20T15:11:37.858Z,51.70
2019-05-20T15:14:00.281Z,52.17
2019-05-20T15:17:04.194Z,52.97
2019-05-20T15:19:39.851Z,54.33
2019-05-20T15:22:14.229Z,50.47
2019-05-20T15:24:50.839Z,46.50
2019-05-20T15:27:27.105Z,45.20
2019-05-20T15:30:02.656Z,50.80
2019-05-20T15:32:39.501Z,46.87
2019-05-20T15:35:10.910Z,46.93
2019-05-20T15:37:41.994Z,47.83
2019-05-20T15:40:12.808Z,50.10
2019-05-20T15:42:43.172Z,47.63
2019-05-20T15:45:13.983Z,49.20
2019-05-20T15:47:44.305Z,43.57
2019-05-20T15:50:15.069Z,42.50
2019-05-20T15:52:45.458Z,48.23
2019-05-20T15:55:15.738Z,46.30
2019-05-20T15:57:46.069Z,43.90
2019-05-20T16:00:18.130Z,45.13
2019-05-20T16:02:48.477Z,47.73
2019-05-20T16:05:18.839Z,45.43
2019-05-20T16:07:49.140Z,44.03
2019-05-20T16:10:19.662Z,44.73
2019-05-20T16:12:49.990Z,45.03
2019-05-20T16:15:20.319Z,47.17
2019-05-20T16:17:50.638Z,44.03
2019-05-20T16:20:21.190Z,51.40
2019-05-20T16:22:51.509Z,47.80
2019-05-20T16:25:21.980Z,47.47
2019-05-20T16:27:52.277Z,45.50
2019-05-20T16:30:22.730Z,45.37
2019-05-20T16:32:53.123Z,44.83
2019-05-20T16:35:23.549Z,45.27
2019-05-20T16:37:53.898Z,45.60
2019-05-20T16:40:24.261Z,44.93
2019-05-20T16:42:54.622Z,48.33
2019-05-20T16:45:25.020Z,46.23
2019-05-20T16:47:57.934Z,47.27
2019-05-20T16:50:29.380Z,45.80
2019-05-20T16:52:59.812Z,48.03
2019-05-20T16:55:30.162Z,48.03
2019-05-20T16:58:00.537Z,48.03
2019-05-20T17:00:32.328Z,44.00
2019-05-20T17:03:02.799Z,45.83
2019-05-20T17:05:33.156Z,47.50
2019-05-20T17:08:03.608Z,51.77
2019-05-20T17:10:33.967Z,49.53
2019-05-20T17:13:07.625Z,48.50
2019-05-20T17:15:45.092Z,47.40
2019-05-20T17:18:25.859Z,44.60
2019-05-20T17:21:01.440Z,51.60
2019-05-20T17:23:33.607Z,50.67
2019-05-20T17:26:05.181Z,46.37
2019-05-20T17:28:35.475Z,47.93
2019-05-20T17:31:07.069Z,49.90
2019-05-20T17:33:38.298Z,48.87
2019-05-20T17:36:09.255Z,50.73
2019-05-20T17:38:41.395Z,49.70
2019-05-20T17:41:11.838Z,53.03
2019-05-20T17:43:42.193Z,58.43
2019-05-20T17:46:12.540Z,53.40
2019-05-20T17:48:42.979Z,55.10
2019-05-20T17:51:13.438Z,58.57
2019-05-20T17:53:43.838Z,55.33
2019-05-20T17:56:14.232Z,63.37
2019-05-20T17:58:44.661Z,59.83
2019-05-20T18:01:16.191Z,59.87
2019-05-20T18:03:46.873Z,57.63
2019-05-20T18:06:17.215Z,61.37
2019-05-20T18:08:50.506Z,60.00
2019-05-20T18:11:23.561Z,52.97
2019-05-20T18:13:53.887Z,39.37
2019-05-20T18:16:29.021Z,41.40
2019-05-20T18:19:02.041Z,41.10
2019-05-20T18:21:33.601Z,40.37
2019-05-20T18:24:05.881Z,35.20
2019-05-20T18:26:38.664Z,39.33
2019-05-20T18:29:13.001Z,32.23
2019-05-20T18:31:45.270Z,24.93
2019-05-20T18:34:18.131Z,23.83
2019-05-20T18:36:50.389Z,21.53
2019-05-20T18:39:22.480Z,21.57
2019-05-20T18:41:55.378Z,21.07
2019-05-20T18:44:27.292Z,19.20
2019-05-20T18:46:59.542Z,17.23
2019-05-20T18:49:36.289Z,12.73
2019-05-20T18:52:11.324Z,15.07
2019-05-20T18:54:43.518Z,11.67
2019-05-20T18:57:16.854Z,10.00
2019-05-20T18:59:48.447Z,12.20
2019-05-20T19:02:20.633Z,10.53
2019-05-20T19:04:54.552Z,11.70
2019-05-20T19:07:27.013Z,12.60
2019-05-20T19:09:59.661Z,11.33
2019-05-20T19:12:32.399Z,12.37
2019-05-20T19:15:06.207Z,10.60
2019-05-20T19:17:39.806Z,9.67
2019-05-20T19:20:11.756Z,8.10
2019-05-20T19:22:45.000Z,7.90
2019-05-20T19:25:20.121Z,9.90
2019-05-20T19:27:56.311Z,11.63
2019-05-20T19:30:28.294Z,10.60
2019-05-20T19:33:03.802Z,9.27
2019-05-20T19:35:39.839Z,10.60
2019-05-20T19:38:10.166Z,11.07
2019-05-20T19:40:40.906Z,10.83
2019-05-20T19:43:11.258Z,10.20
2019-05-20T19:45:41.606Z,12.00
2019-05-20T19:48:11.900Z,14.03
2019-05-20T19:50:42.314Z,10.50
2019-05-20T19:53:12.750Z,11.33
2019-05-20T19:55:43.058Z,10.37
2019-05-20T19:58:13.389Z,10.43
2019-05-20T20:00:43.957Z,10.13
2019-05-20T20:03:14.269Z,9.07
2019-05-20T20:05:44.613Z,10.20
2019-05-20T20:08:15.178Z,10.83
2019-05-20T20:10:45.079Z,10.57
2019-05-20T20:13:15.698Z,10.03
2019-05-20T20:15:46.040Z,10.83
2019-05-20T20:18:16.485Z,10.40
2019-05-20T20:20:46.809Z,11.70
2019-05-20T20:23:19.322Z,11.40
2019-05-20T20:25:49.888Z,12.67
2019-05-20T20:28:20.333Z,12.47
2019-05-20T20:30:50.747Z,10.97
2019-05-20T20:33:21.283Z,14.67
2019-05-20T20:35:51.579Z,13.23
2019-05-20T20:38:21.905Z,14.80
2019-05-20T20:40:52.262Z,16.70
2019-05-20T20:43:22.602Z,20.00
2019-05-20T20:45:53.126Z,18.30
2019-05-20T20:48:23.560Z,19.20
2019-05-20T20:50:54.028Z,19.87
2019-05-20T20:53:24.029Z,17.33
2019-05-20T20:55:54.735Z,16.23
2019-05-20T20:58:25.791Z,18.67
2019-05-20T21:00:56.081Z,18.83
2019-05-20T21:03:26.808Z,18.07
2019-05-20T21:05:59.551Z,17.17
2019-05-20T21:08:30.079Z,15.23
2019-05-20T21:11:00.427Z,15.30
2019-05-20T21:13:30.783Z,15.30
2019-05-20T21:16:01.086Z,11.60
2019-05-20T21:18:31.916Z,8.60
2019-05-20T21:21:02.295Z,5.17
2019-05-20T21:23:33.770Z,4.83
2019-05-20T21:26:04.125Z,4.63
2019-05-20T21:28:35.332Z,3.40
2019-05-20T21:31:05.659Z,3.67
2019-05-20T21:33:36.076Z,3.87
2019-05-20T21:36:06.466Z,2.60
2019-05-20T21:38:36.797Z,3.73
2019-05-20T21:41:07.381Z,4.23
2019-05-20T21:43:39.465Z,3.77
2019-05-20T21:46:09.951Z,2.63
2019-05-20T21:48:40.851Z,4.80
2019-05-20T21:51:11.651Z,4.60
2019-05-20T21:53:42.342Z,6.27
2019-05-20T21:56:12.731Z,5.87
2019-05-20T21:58:43.055Z,6.47
2019-05-20T22:01:13.502Z,8.07
2019-05-20T22:03:43.969Z,7.80
2019-05-20T22:06:14.280Z,7.13
2019-05-20T22:08:44.646Z,10.17
2019-05-20T22:11:14.947Z,9.47
2019-05-20T22:13:45.486Z,12.50
2019-05-20T22:16:15.977Z,11.07
2019-05-20T22:18:46.969Z,14.37
2019-05-20T22:21:20.423Z,13.07
2019-05-20T22:23:55.726Z,13.50
2019-05-20T22:26:25.650Z,17.33
2019-05-20T22:28:56.109Z,17.87
2019-05-20T22:31:29.288Z,17.30
2019-05-20T22:33:59.463Z,21.47
2019-05-20T22:36:35.793Z,24.93
2019-05-20T22:39:10.005Z,23.33
2019-05-20T22:41:42.455Z,35.10
2019-05-20T22:44:14.431Z,32.27
2019-05-20T22:46:45.164Z,31.80
2019-05-20T22:49:15.591Z,33.37
2019-05-20T22:51:46.002Z,31.87
2019-05-20T22:54:20.549Z,29.67
2019-05-20T22:56:50.867Z,30.33
2019-05-20T22:59:21.337Z,25.87
2019-05-20T23:01:51.701Z,22.73
2019-05-20T23:04:22.116Z,23.10
2019-05-20T23:06:52.974Z,21.20
2019-05-20T23:09:23.337Z,19.83
2019-05-20T23:11:53.665Z,18.77
2019-05-20T23:14:24.017Z,17.70
2019-05-20T23:16:54.444Z,16.20
2019-05-20T23:19:24.789Z,14.50
2019-05-20T23:21:55.147Z,13.50
2019-05-20T23:24:25.615Z,10.40
2019-05-20T23:26:55.909Z,11.97
2019-05-20T23:29:26.410Z,11.93
2019-05-20T23:31:56.696Z,10.27
2019-05-20T23:34:27.071Z,9.40
2019-05-20T23:36:57.392Z,8.40
2019-05-20T23:39:27.831Z,8.13
2019-05-20T23:41:58.217Z,8.40
2019-05-20T23:44:28.646Z,6.20
2019-05-20T23:46:59.020Z,6.23
2019-05-20T23:49:29.343Z,6.77
2019-05-20T23:51:59.641Z,5.63
2019-05-20T23:54:29.941Z,6.30
2019-05-20T23:57:00.282Z,5.27
2019-05-20T23:59:30.581Z,5.63
